Time;durP1;ratioP1;P1;durP2;ratioP2;P2;SDS_P1;SDS_P2;PMS_P1;PMS_P2;Temp;Humidity;BMP_temperature;BMP_pressure;BME280_temperature;BME280_humidity;BME280_pressure;Samples;Min_cycle;Max_cycle;Signal;HPM_P1;HPM_P2
2023/04/27 00:01:22;;;;;;;8.40;6.88;;;4.20;75.30;;;;;;5055005;28;20072;-59
2023/04/27 00:03:48;;;;;;;9.30;5.93;;;4.00;77.10;;;;;;5055372;28;20383;-59
2023/04/27 00:06:13;;;;;;;9.75;6.25;;;4.10;83.60;;;;;;5055253;28;20376;-59
2023/04/27 00:08:39;;;;;;;8.45;6.00;;;4.10;85.10;;;;;;5055189;28;20521;-59
2023/04/27 00:11:05;;;;;;;8.77;6.63;;;4.10;85.50;;;;;;5055203;28;20100;-58
2023/04/27 00:13:31;;;;;;;8.85;6.28;;;4.00;87.40;;;;;;5054909;28;20136;-59
2023/04/27 00:15:59;;;;;;;13.48;7.35;;;4.00;86.00;;;;;;5055358;28;20020;-59
2023/04/27 00:18:25;;;;;;;10.73;7.32;;;4.00;86.10;;;;;;5053625;28;20106;-59
2023/04/27 00:20:50;;;;;;;15.40;8.90;;;4.10;85.00;;;;;;5055095;28;20067;-59
2023/04/27 00:23:16;;;;;;;13.63;7.82;;;4.10;83.90;;;;;;5054669;28;20033;-59
2023/04/27 00:25:42;;;;;;;10.38;7.25;;;4.10;80.80;;;;;;5054286;28;20110;-58
2023/04/27 00:28:07;;;;;;;11.15;7.55;;;4.00;80.90;;;;;;5054632;28;20036;-59
2023/04/27 00:30:33;;;;;;;8.07;6.63;;;4.00;82.20;;;;;;5054799;28;20036;-58
2023/04/27 00:32:59;;;;;;;7.18;6.15;;;4.10;86.50;;;;;;5054406;28;20029;-58
2023/04/27 00:35:24;;;;;;;7.40;6.05;;;4.10;87.20;;;;;;5054170;28;20478;-59
2023/04/27 00:37:52;;;;;;;11.45;7.50;;;4.10;86.30;;;;;;5054314;28;20119;-59
2023/04/27 00:40:20;;;;;;;7.88;6.40;;;4.10;85.80;;;;;;5070542;28;20032;-57
2023/04/27 00:42:45;;;;;;;13.75;7.85;;;4.00;87.70;;;;;;5074076;28;20032;-58
2023/04/27 00:45:12;;;;;;;6.75;5.97;;;4.00;89.40;;;;;;5074187;28;20029;-59
2023/04/27 00:47:38;;;;;;;12.07;6.93;;;4.10;90.60;;;;;;5074037;28;20036;-58
2023/04/27 00:50:07;;;;;;;8.57;5.63;;;4.20;91.10;;;;;;5074201;28;20021;-59
2023/04/27 00:52:34;;;;;;;7.80;6.70;;;4.20;90.70;;;;;;5074262;28;20550;-59
2023/04/27 00:55:03;;;;;;;11.40;6.25;;;4.30;90.20;;;;;;5073109;28;20135;-59
2023/04/27 00:57:29;;;;;;;9.75;6.30;;;4.30;88.30;;;;;;5074191;28;20375;-59
2023/04/27 00:59:57;;;;;;;11.50;6.05;;;4.30;87.30;;;;;;5074012;28;20098;-59
2023/04/27 01:02:23;;;;;;;8.65;6.13;;;4.30;87.00;;;;;;5074141;28;20029;-59
2023/04/27 01:04:49;;;;;;;8.98;5.03;;;4.30;84.50;;;;;;5072998;28;20066;-59
2023/04/27 01:07:15;;;;;;;6.75;5.20;;;4.40;82.60;;;;;;5074016;28;20028;-59
2023/04/27 01:09:41;;;;;;;10.32;5.97;;;4.40;81.90;;;;;;5074144;28;20074;-59
2023/04/27 01:12:07;;;;;;;8.05;6.53;;;4.40;81.20;;;;;;5073988;28;20467;-59
2023/04/27 01:14:34;;;;;;;8.95;5.90;;;4.50;75.30;;;;;;5074193;28;20036;-59
2023/04/27 01:17:00;;;;;;;6.00;5.40;;;4.50;73.90;;;;;;5073901;28;20023;-59
2023/04/27 01:19:26;;;;;;;12.90;6.57;;;4.50;74.80;;;;;;5073908;28;20409;-58
2023/04/27 01:21:51;;;;;;;15.73;7.97;;;4.50;77.00;;;;;;5073904;28;20480;-59
2023/04/27 01:24:17;;;;;;;8.00;5.45;;;4.50;73.00;;;;;;5073701;28;20024;-59
2023/04/27 01:26:43;;;;;;;9.05;6.20;;;4.40;75.00;;;;;;5073847;28;20546;-59
2023/04/27 01:29:08;;;;;;;7.22;5.72;;;4.30;78.00;;;;;;5073804;28;20029;-59
2023/04/27 01:31:34;;;;;;;6.70;5.90;;;4.30;82.10;;;;;;5073755;28;20021;-59
2023/04/27 01:34:00;;;;;;;14.90;6.10;;;4.20;85.10;;;;;;5073763;28;20541;-59
2023/04/27 01:36:26;;;;;;;8.75;5.97;;;4.20;86.70;;;;;;5072216;28;20361;-57
2023/04/27 01:38:52;;;;;;;7.60;5.65;;;4.30;88.30;;;;;;5072426;28;20525;-59
2023/04/27 01:41:17;;;;;;;9.00;6.50;;;4.30;90.00;;;;;;5073318;28;20029;-59
2023/04/27 01:43:43;;;;;;;6.25;5.65;;;4.30;89.10;;;;;;5073606;28;20024;-59
2023/04/27 01:46:13;;;;;;;7.72;5.80;;;4.40;90.30;;;;;;5073556;28;20562;-58
2023/04/27 01:48:39;;;;;;;11.82;6.22;;;4.40;89.70;;;;;;5073506;28;20502;-58
2023/04/27 01:51:06;;;;;;;6.78;6.00;;;4.40;86.80;;;;;;5073402;28;20017;-57
2023/04/27 01:53:31;;;;;;;6.78;6.13;;;4.30;84.50;;;;;;5072532;28;20016;-58
2023/04/27 01:56:00;;;;;;;9.68;5.90;;;4.30;84.80;;;;;;5073077;28;20089;-59
2023/04/27 01:58:26;;;;;;;9.40;5.57;;;4.40;86.60;;;;;;5073108;28;20119;-58
2023/04/27 02:00:52;;;;;;;6.93;5.55;;;4.30;84.60;;;;;;5072626;28;20051;-59
2023/04/27 02:03:18;;;;;;;11.63;6.18;;;4.30;85.10;;;;;;5072512;28;20020;-59
2023/04/27 02:05:44;;;;;;;6.35;5.75;;;4.30;87.80;;;;;;5072743;28;20456;-59
2023/04/27 02:08:09;;;;;;;7.55;6.10;;;4.40;88.10;;;;;;5072339;28;20028;-59
2023/04/27 02:11:09;;;;;;;7.60;5.70;;;4.50;89.90;;;;;;5072356;28;20476;-58
2023/04/27 02:13:35;;;;;;;6.15;5.55;;;4.50;88.40;;;;;;5071757;28;20048;-59
2023/04/27 02:16:03;;;;;;;7.82;5.30;;;4.50;85.00;;;;;;5072559;28;20400;-59
2023/04/27 02:18:31;;;;;;;7.05;4.40;;;4.60;85.90;;;;;;5072029;28;20030;-59
2023/04/27 02:20:57;;;;;;;7.63;5.18;;;4.70;85.40;;;;;;5072738;28;20013;-59
2023/04/27 02:23:23;;;;;;;6.00;5.40;;;4.70;80.90;;;;;;5072458;28;20054;-54
2023/04/27 02:25:48;;;;;;;4.95;4.13;;;4.80;80.00;;;;;;5072258;28;20111;-59
2023/04/27 02:28:14;;;;;;;10.38;5.47;;;4.70;79.60;;;;;;5072003;28;20020;-59
2023/04/27 02:30:40;;;;;;;12.15;6.32;;;4.70;83.30;;;;;;5070902;28;20017;-59
2023/04/27 02:33:05;;;;;;;12.88;5.90;;;4.70;86.20;;;;;;5071615;28;20590;-58
2023/04/27 02:35:32;;;;;;;6.65;5.68;;;4.70;87.10;;;;;;5072175;28;20036;-58
2023/04/27 02:37:57;;;;;;;11.68;5.55;;;4.70;85.60;;;;;;5072327;28;20104;-59
2023/04/27 02:40:23;;;;;;;7.30;5.65;;;4.70;86.00;;;;;;5072259;28;20131;-59
2023/04/27 02:42:50;;;;;;;6.07;5.43;;;4.70;88.00;;;;;;5072312;28;20082;-59
2023/04/27 02:45:18;;;;;;;10.88;6.65;;;4.70;88.00;;;;;;5072372;28;20036;-59
2023/04/27 02:47:44;;;;;;;7.18;5.20;;;4.80;84.50;;;;;;5072053;28;20025;-59
2023/04/27 02:50:10;;;;;;;7.65;6.05;;;4.80;80.50;;;;;;5072221;28;20523;-59
2023/04/27 02:52:35;;;;;;;11.98;5.60;;;4.80;80.10;;;;;;5071849;28;20028;-59
2023/04/27 02:55:01;;;;;;;9.80;6.30;;;4.80;82.30;;;;;;5072073;28;20431;-59
2023/04/27 02:57:27;;;;;;;7.40;5.68;;;4.80;85.70;;;;;;5072058;28;20678;-59
2023/04/27 02:59:52;;;;;;;8.40;5.63;;;4.80;86.20;;;;;;5072022;28;20153;-59
2023/04/27 03:02:18;;;;;;;5.70;4.90;;;4.90;87.90;;;;;;5071741;28;20016;-59
2023/04/27 03:04:44;;;;;;;9.13;6.38;;;4.90;84.90;;;;;;5072010;28;20108;-58
2023/04/27 03:07:11;;;;;;;8.98;5.70;;;4.80;85.80;;;;;;5071841;28;20021;-59
2023/04/27 03:09:37;;;;;;;11.60;5.47;;;4.90;87.60;;;;;;5071962;28;20036;-59
2023/04/27 03:12:03;;;;;;;7.82;6.15;;;4.90;87.40;;;;;;5071793;28;20465;-59
2023/04/27 03:14:29;;;;;;;11.27;5.70;;;4.90;89.90;;;;;;5071909;28;20518;-59
2023/04/27 03:16:56;;;;;;;8.93;5.75;;;4.90;89.70;;;;;;5071921;28;20021;-59
2023/04/27 03:19:22;;;;;;;10.88;7.90;;;4.80;89.60;;;;;;5071687;28;20020;-59
2023/04/27 03:21:47;;;;;;;7.38;5.70;;;4.80;90.50;;;;;;5071569;28;20032;-59
2023/04/27 03:24:13;;;;;;;6.35;5.53;;;4.80;89.90;;;;;;5071596;28;20021;-59
2023/04/27 03:26:38;;;;;;;7.85;5.95;;;4.80;89.00;;;;;;5071726;28;20365;-59
2023/04/27 03:29:04;;;;;;;6.10;5.32;;;4.80;89.00;;;;;;5071722;28;20522;-59
2023/04/27 03:31:30;;;;;;;6.50;5.43;;;4.80;88.30;;;;;;5071257;28;20028;-59
2023/04/27 03:33:56;;;;;;;11.98;5.47;;;4.70;84.70;;;;;;5071698;28;20066;-59
2023/04/27 03:36:21;;;;;;;6.63;5.72;;;4.70;85.10;;;;;;5071462;28;20498;-59
2023/04/27 03:38:47;;;;;;;9.05;5.97;;;4.70;84.20;;;;;;5071621;28;20033;-59
2023/04/27 03:41:13;;;;;;;6.05;5.45;;;4.60;86.40;;;;;;5071521;28;20020;-59
2023/04/27 03:43:39;;;;;;;9.95;6.63;;;4.50;89.40;;;;;;5071458;28;20062;-59
2023/04/27 03:46:04;;;;;;;6.38;5.78;;;4.50;90.20;;;;;;5071539;28;20363;-58
2023/04/27 03:48:30;;;;;;;7.35;5.78;;;4.50;90.50;;;;;;5071421;28;20036;-59
2023/04/27 03:50:56;;;;;;;8.82;5.93;;;4.50;91.30;;;;;;5071309;28;20025;-59
2023/04/27 03:53:21;;;;;;;9.23;5.80;;;4.40;92.30;;;;;;5069950;28;20062;-59
2023/04/27 03:55:47;;;;;;;11.48;5.95;;;4.40;91.10;;;;;;5071579;28;20108;-57
2023/04/27 03:58:16;;;;;;;6.50;5.05;;;4.40;91.50;;;;;;5071378;28;20040;-59
2023/04/27 04:00:42;;;;;;;9.73;6.22;;;4.40;90.10;;;;;;5070972;28;20080;-58
2023/04/27 04:03:07;;;;;;;11.43;5.40;;;4.30;90.60;;;;;;5071324;28;20083;-59
2023/04/27 04:05:33;;;;;;;8.30;5.68;;;4.30;91.00;;;;;;5071205;28;20025;-59
2023/04/27 04:07:59;;;;;;;8.73;5.65;;;4.30;89.60;;;;;;5071407;28;20024;-59
2023/04/27 04:10:25;;;;;;;10.00;5.95;;;4.20;90.00;;;;;;5071081;28;20035;-57
2023/04/27 04:12:51;;;;;;;9.85;6.07;;;4.20;90.40;;;;;;5071357;28;20100;-57
2023/04/27 04:15:18;;;;;;;8.07;5.90;;;4.30;91.50;;;;;;5069799;28;20021;-59
2023/04/27 04:17:44;;;;;;;8.95;6.30;;;4.40;91.10;;;;;;5071233;28;20170;-59
2023/04/27 04:20:10;;;;;;;12.40;6.13;;;4.40;90.30;;;;;;5071052;28;20099;-59
2023/04/27 04:22:37;;;;;;;10.60;6.05;;;4.40;88.70;;;;;;5070894;28;20160;-59
2023/04/27 04:25:03;;;;;;;11.40;6.95;;;4.40;88.20;;;;;;5070960;28;20348;-59
2023/04/27 04:27:29;;;;;;;10.05;6.68;;;4.40;90.60;;;;;;5069560;28;20060;-58
2023/04/27 04:29:54;;;;;;;9.80;6.72;;;4.60;90.80;;;;;;5070935;28;20098;-59
2023/04/27 04:32:21;;;;;;;11.02;7.18;;;4.60;89.70;;;;;;5070820;28;20021;-59
2023/04/27 04:34:50;;;;;;;13.40;7.25;;;4.70;87.40;;;;;;5071348;28;20020;-58
2023/04/27 04:37:17;;;;;;;13.20;6.90;;;4.80;84.80;;;;;;5074657;28;20082;-59
2023/04/27 04:39:43;;;;;;;11.18;7.13;;;4.80;79.50;;;;;;5074686;28;20017;-59
2023/04/27 04:42:09;;;;;;;13.77;8.07;;;4.90;79.60;;;;;;5074553;28;20021;-59
2023/04/27 04:44:35;;;;;;;12.93;7.32;;;4.90;77.70;;;;;;5074457;28;20409;-59
2023/04/27 04:47:01;;;;;;;13.65;6.97;;;5.00;76.50;;;;;;5074612;28;20094;-59
2023/04/27 04:49:26;;;;;;;8.65;7.75;;;5.00;74.20;;;;;;5074316;28;20059;-58
2023/04/27 04:51:52;;;;;;;7.82;6.30;;;5.20;74.40;;;;;;5073152;28;20029;-59
2023/04/27 04:54:18;;;;;;;12.52;5.72;;;5.30;68.50;;;;;;5074336;28;20348;-59
2023/04/27 04:56:43;;;;;;;8.18;5.80;;;5.30;65.00;;;;;;5074046;28;20509;-59
2023/04/27 04:59:09;;;;;;;8.52;6.47;;;5.30;62.90;;;;;;5074289;28;20541;-59
2023/04/27 05:01:35;;;;;;;9.77;6.43;;;5.20;72.10;;;;;;5073520;28;20064;-58
2023/04/27 05:04:01;;;;;;;11.40;6.70;;;5.20;73.90;;;;;;5073302;28;20390;-59
2023/04/27 05:06:26;;;;;;;8.55;6.47;;;5.20;71.60;;;;;;5073899;28;20363;-59
2023/04/27 05:08:52;;;;;;;7.60;6.72;;;5.20;69.50;;;;;;5085522;28;20446;-59
2023/04/27 05:11:18;;;;;;;13.93;6.70;;;5.20;72.80;;;;;;5093361;28;20012;-59
2023/04/27 05:13:43;;;;;;;12.20;6.30;;;5.30;76.60;;;;;;5093685;28;20091;-59
2023/04/27 05:16:09;;;;;;;7.47;5.80;;;5.50;77.90;;;;;;5087657;28;20099;-59
2023/04/27 05:18:35;;;;;;;8.48;5.03;;;5.70;69.80;;;;;;5073714;28;20033;-59
2023/04/27 05:21:01;;;;;;;9.43;6.30;;;5.90;55.10;;;;;;5074115;28;20104;-59
2023/04/27 05:23:27;;;;;;;7.88;5.82;;;6.00;49.10;;;;;;5073892;28;20119;-59
2023/04/27 05:25:52;;;;;;;8.57;7.65;;;6.00;44.10;;;;;;5073697;28;20104;-57
2023/04/27 05:28:18;;;;;;;9.05;7.75;;;6.10;47.10;;;;;;5073526;28;20032;-58
2023/04/27 05:30:44;;;;;;;10.13;5.72;;;6.20;41.80;;;;;;5073830;28;20059;-59
2023/04/27 05:33:09;;;;;;;9.35;6.22;;;6.30;43.20;;;;;;5073011;28;20050;-59
2023/04/27 05:35:35;;;;;;;8.98;7.32;;;6.40;38.60;;;;;;5073073;28;20025;-59
2023/04/27 05:38:01;;;;;;;10.43;6.72;;;6.40;33.30;;;;;;5073059;28;20032;-59
2023/04/27 05:40:27;;;;;;;11.38;6.65;;;6.50;39.70;;;;;;5072815;28;20021;-59
2023/04/27 05:42:53;;;;;;;9.50;7.38;;;6.60;32.80;;;;;;5073246;28;20048;-59
2023/04/27 05:45:19;;;;;;;8.60;6.68;;;6.50;34.50;;;;;;5073361;28;20025;-59
2023/04/27 05:47:45;;;;;;;11.45;6.82;;;6.40;43.20;;;;;;5072051;28;20103;-59
2023/04/27 05:50:11;;;;;;;10.38;6.85;;;6.50;51.50;;;;;;5072940;28;20111;-59
2023/04/27 05:52:37;;;;;;;8.00;7.15;;;6.60;59.10;;;;;;5072985;28;20134;-59
2023/04/27 05:55:04;;;;;;;11.07;8.02;;;6.90;48.30;;;;;;5073097;28;20027;-59
2023/04/27 05:57:30;;;;;;;14.70;10.13;;;7.00;37.90;;;;;;5072862;28;20494;-56
2023/04/27 05:59:56;;;;;;;12.88;8.27;;;7.00;48.90;;;;;;5072287;28;20048;-62
2023/04/27 06:02:22;;;;;;;15.90;8.68;;;7.00;54.80;;;;;;5072491;28;20016;-58
2023/04/27 06:04:47;;;;;;;12.10;8.82;;;7.10;45.00;;;;;;5072847;28;20566;-58
2023/04/27 06:07:14;;;;;;;10.32;8.95;;;7.20;21.90;;;;;;5072828;28;20051;-58
2023/04/27 06:09:41;;;;;;;15.73;8.80;;;7.30;25.30;;;;;;5072327;28;20048;-56
2023/04/27 06:12:08;;;;;;;10.68;8.20;;;7.40;7.10;;;;;;5072832;28;20021;-58
2023/04/27 06:14:35;;;;;;;11.10;8.05;;;7.50;1.00;;;;;;5072364;28;20021;-58
2023/04/27 06:17:02;;;;;;;13.82;8.27;;;7.70;1.00;;;;;;5072252;28;20419;-57
2023/04/27 06:19:27;;;;;;;12.88;8.40;;;7.70;1.00;;;;;;5072529;28;20023;-59
2023/04/27 06:21:54;;;;;;;14.43;7.50;;;7.80;1.00;;;;;;5072589;28;20699;-59
2023/04/27 06:24:21;;;;;;;18.38;8.57;;;7.90;1.00;;;;;;5072327;28;20025;-57
2023/04/27 06:26:47;;;;;;;14.25;7.50;;;8.10;1.00;;;;;;5072144;28;20075;-58
2023/04/27 06:29:13;;;;;;;8.73;7.43;;;8.10;1.00;;;;;;5070773;28;20030;-59
2023/04/27 06:31:39;;;;;;;11.55;7.38;;;8.30;1.00;;;;;;5072370;28;20016;-56
2023/04/27 06:34:06;;;;;;;13.68;7.63;;;8.10;1.00;;;;;;5071660;28;20082;-58
2023/04/27 06:36:32;;;;;;;11.70;7.60;;;8.20;1.00;;;;;;5072129;28;20024;-57
2023/04/27 06:38:58;;;;;;;11.07;6.80;;;8.10;1.00;;;;;;5072286;28;20031;-56
2023/04/27 06:41:25;;;;;;;19.10;8.57;;;8.10;1.00;;;;;;5072244;28;20431;-54
2023/04/27 06:43:51;;;;;;;18.40;8.00;;;8.30;1.00;;;;;;5071607;28;20020;-59
2023/04/27 06:46:17;;;;;;;16.38;8.98;;;8.30;1.00;;;;;;5071968;28;20100;-56
2023/04/27 06:48:43;;;;;;;15.77;8.23;;;8.40;1.00;;;;;;5071940;28;20719;-57
2023/04/27 06:51:08;;;;;;;13.25;7.45;;;8.40;1.00;;;;;;5071923;28;20107;-56
2023/04/27 06:53:34;;;;;;;9.80;7.60;;;8.50;1.00;;;;;;5071860;28;20028;-55
2023/04/27 06:56:00;;;;;;;12.77;6.88;;;8.50;99.90;;;;;;5072077;28;20542;-54
2023/04/27 06:58:26;;;;;;;11.02;6.80;;;8.80;1.00;;;;;;5071520;28;20020;-55
2023/04/27 07:00:52;;;;;;;8.75;6.18;;;8.80;1.00;;;;;;5070992;28;20526;-56
2023/04/27 07:03:19;;;;;;;9.02;6.78;;;9.00;1.00;;;;;;5071964;28;20029;-58
2023/04/27 07:05:45;;;;;;;10.65;7.35;;;9.20;99.90;;;;;;5071766;28;20359;-58
2023/04/27 07:08:11;;;;;;;13.95;6.40;;;9.40;99.90;;;;;;5071964;28;20037;-58
2023/04/27 07:10:37;;;;;;;10.85;7.47;;;9.20;99.90;;;;;;5071699;28;20028;-58
2023/04/27 07:13:03;;;;;;;12.23;6.78;;;9.10;99.90;;;;;;5071470;28;20017;-59
2023/04/27 07:15:30;;;;;;;9.20;7.05;;;9.40;99.90;;;;;;5071608;28;20097;-58
2023/04/27 07:17:56;;;;;;;12.77;7.15;;;9.70;99.90;;;;;;5071221;28;20025;-58
2023/04/27 07:20:21;;;;;;;11.13;7.03;;;10.00;99.90;;;;;;5071509;28;20026;-58
2023/04/27 07:22:47;;;;;;;13.40;6.82;;;10.30;99.90;;;;;;5071209;28;20032;-59
2023/04/27 07:25:13;;;;;;;16.92;6.97;;;10.50;99.90;;;;;;5072456;28;20032;-59
2023/04/27 07:27:40;;;;;;;10.82;7.15;;;10.70;99.90;;;;;;5070402;28;20027;-56
2023/04/27 07:30:08;;;;;;;10.52;7.05;;;10.80;69.20;;;;;;5071232;28;20012;-58
2023/04/27 07:32:38;;;;;;;11.82;8.23;;;11.10;1.00;;;;;;5069904;28;20058;-57
2023/04/27 07:35:04;;;;;;;13.88;8.70;;;11.20;99.90;;;;;;5071048;28;20024;-58
2023/04/27 07:37:30;;;;;;;14.23;6.70;;;11.30;10.70;;;;;;5071376;28;20024;-59
2023/04/27 07:39:56;;;;;;;9.43;6.82;;;11.30;1.00;;;;;;5071125;28;20025;-58
2023/04/27 07:42:22;;;;;;;13.43;6.38;;;11.40;99.90;;;;;;5071161;28;20017;-59
2023/04/27 07:44:49;;;;;;;18.27;7.63;;;11.40;99.90;;;;;;5070955;28;20400;-56
2023/04/27 07:47:15;;;;;;;11.30;6.80;;;11.50;1.00;;;;;;5071347;28;20025;-58
2023/04/27 07:49:40;;;;;;;12.45;6.95;;;11.60;99.90;;;;;;5071027;28;20025;-58
2023/04/27 07:52:07;;;;;;;10.90;6.70;;;11.80;99.90;;;;;;5071591;28;20012;-60
2023/04/27 07:54:33;;;;;;;9.07;6.45;;;11.80;99.90;;;;;;5071139;28;20620;-58
2023/04/27 07:56:59;;;;;;;12.48;5.57;;;11.90;1.00;;;;;;5071337;28;20519;-55
2023/04/27 07:59:38;;;;;;;10.45;5.45;;;11.80;72.40;;;;;;5070603;28;20059;-59
2023/04/27 08:02:04;;;;;;;12.50;5.75;;;12.10;1.00;;;;;;5069727;28;20403;-59
2023/04/27 08:04:30;;;;;;;14.75;5.18;;;12.40;99.90;;;;;;5070937;28;20367;-59
2023/04/27 08:06:55;;;;;;;9.30;6.47;;;12.40;39.30;;;;;;5069654;28;20029;-58
2023/04/27 08:09:21;;;;;;;11.13;6.80;;;12.50;99.90;;;;;;5070921;28;20488;-59
2023/04/27 08:11:47;;;;;;;13.32;5.65;;;12.70;56.30;;;;;;5074348;28;20066;-57
2023/04/27 08:14:12;;;;;;;14.02;6.50;;;12.70;99.90;;;;;;5075054;28;20024;-58
2023/04/27 08:16:43;;;;;;;8.65;5.72;;;12.90;99.90;;;;;;5074837;28;20021;-58
2023/04/27 08:19:10;;;;;;;14.10;5.53;;;12.90;1.00;;;;;;5073783;28;20077;-54
2023/04/27 08:21:36;;;;;;;10.35;5.20;;;13.20;99.90;;;;;;5074450;28;20063;-57
2023/04/27 08:24:05;;;;;;;14.48;6.20;;;13.30;99.90;;;;;;5074804;28;20021;-58
2023/04/27 08:26:31;;;;;;;10.45;5.82;;;13.20;1.00;;;;;;5074279;28;20154;-58
2023/04/27 08:28:58;;;;;;;6.43;5.28;;;13.10;1.00;;;;;;5074544;28;20111;-58
2023/04/27 08:31:25;;;;;;;13.75;5.38;;;12.90;1.00;;;;;;5074238;28;20103;-59
2023/04/27 08:33:51;;;;;;;8.57;5.95;;;12.90;99.90;;;;;;5074413;28;20021;-59
2023/04/27 08:36:18;;;;;;;9.80;5.75;;;13.00;99.90;;;;;;5073964;28;20025;-59
2023/04/27 08:38:45;;;;;;;9.38;5.18;;;13.30;99.90;;;;;;5074830;28;20115;-59
2023/04/27 08:41:10;;;;;;;10.80;5.55;;;13.60;99.90;;;;;;5074522;28;20039;-58
2023/04/27 08:43:36;;;;;;;13.98;5.70;;;13.60;1.00;;;;;;5074264;28;20025;-58
2023/04/27 08:46:02;;;;;;;15.13;5.97;;;13.50;1.00;;;;;;5074454;28;20388;-57
2023/04/27 08:48:28;;;;;;;10.10;6.18;;;13.60;56.80;;;;;;5073775;28;20036;-58
2023/04/27 08:50:56;;;;;;;10.93;5.85;;;13.80;99.90;;;;;;5073101;28;20658;-57
2023/04/27 08:53:22;;;;;;;9.73;6.03;;;14.10;74.90;;;;;;5073587;28;20025;-59
2023/04/27 08:55:49;;;;;;;14.23;6.00;;;13.80;99.90;;;;;;5073876;28;20036;-58
2023/04/27 08:58:15;;;;;;;6.50;5.35;;;13.80;99.90;;;;;;5074016;28;20094;-59
2023/04/27 09:00:42;;;;;;;104.00;43.03;;;13.80;99.90;;;;;;5073717;28;20064;-58
2023/04/27 09:03:23;;;;;;;66.18;27.77;;;13.90;99.90;;;;;;5073959;28;20020;-59
2023/04/27 09:05:50;;;;;;;26.02;10.88;;;14.20;43.00;;;;;;5072565;28;20078;-59
2023/04/27 09:08:15;;;;;;;12.55;5.50;;;14.20;1.00;;;;;;5073775;28;20367;-59
2023/04/27 09:10:46;;;;;;;8.27;5.13;;;14.30;1.00;;;;;;5073541;28;20031;-56
2023/04/27 09:13:12;;;;;;;13.85;5.85;;;14.30;99.90;;;;;;5073757;28;20027;-59
2023/04/27 09:15:45;;;;;;;10.43;5.70;;;14.50;1.00;;;;;;5073464;28;20553;-59
2023/04/27 09:18:21;;;;;;;13.63;5.43;;;14.60;99.90;;;;;;5092735;28;20235;-58
2023/04/27 09:20:49;;;;;;;6.85;4.43;;;14.50;99.90;;;;;;5093778;28;20028;-59
2023/04/27 09:23:38;;;;;;;12.25;5.63;;;14.70;99.90;;;;;;5093587;28;20032;-59
2023/04/27 09:26:07;;;;;;;17.33;4.97;;;15.40;99.90;;;;;;5094128;28;20024;-59
2023/04/27 09:28:34;;;;;;;11.15;6.20;;;15.60;87.90;;;;;;5073323;28;20033;-59
2023/04/27 09:31:03;;;;;;;17.05;5.55;;;15.20;1.00;;;;;;5073578;28;20051;-59
2023/04/27 09:33:31;;;;;;;9.02;5.22;;;15.30;1.00;;;;;;5073325;28;20024;-59
2023/04/27 09:35:59;;;;;;;9.95;4.75;;;15.30;62.50;;;;;;5073346;28;20060;-57
2023/04/27 09:38:25;;;;;;;13.07;5.40;;;15.10;27.20;;;;;;5073146;28;20025;-56
2023/04/27 09:40:52;;;;;;;15.63;5.78;;;15.30;78.40;;;;;;5072622;28;20074;-57
2023/04/27 09:43:18;;;;;;;9.13;4.15;;;16.20;1.00;;;;;;5073092;28;20528;-58
2023/04/27 09:45:43;;;;;;;9.15;4.70;;;16.30;1.00;;;;;;5071153;28;20052;-56
2023/04/27 09:48:11;;;;;;;8.85;4.53;;;15.40;1.00;;;;;;5072856;28;20119;-56
2023/04/27 09:50:39;;;;;;;8.15;4.70;;;15.70;1.00;;;;;;5072962;28;20074;-55
2023/04/27 09:53:10;;;;;;;10.63;5.72;;;15.80;1.00;;;;;;5073131;28;20555;-57
2023/04/27 09:56:13;;;;;;;8.98;4.75;;;15.50;1.00;;;;;;5072798;28;20055;-57
2023/04/27 09:59:16;;;;;;;8.43;5.00;;;15.70;1.00;;;;;;5072933;28;20104;-58
2023/04/27 10:01:50;;;;;;;10.35;5.57;;;15.90;1.00;;;;;;5072463;28;20041;-53
2023/04/27 10:04:43;;;;;;;9.07;4.57;;;15.90;1.00;;;;;;5072829;28;20456;-55
2023/04/27 10:07:13;;;;;;;10.18;4.93;;;16.00;1.00;;;;;;5072781;28;20128;-50
2023/04/27 10:09:41;;;;;;;12.32;4.82;;;16.00;1.00;;;;;;5072330;28;20547;-58
2023/04/27 10:12:25;;;;;;;8.55;4.07;;;16.20;1.00;;;;;;5071284;28;20024;-57
2023/04/27 10:14:59;;;;;;;7.07;4.43;;;16.60;1.00;;;;;;5071534;28;20040;-59
2023/04/27 10:17:34;;;;;;;10.27;4.78;;;17.10;1.00;;;;;;5072329;28;20029;-59
2023/04/27 10:20:08;;;;;;;7.60;5.07;;;17.20;1.00;;;;;;5072559;28;20021;-59
2023/04/27 10:22:48;;;;;;;8.45;5.18;;;16.50;1.00;;;;;;5071164;28;20021;-52
2023/04/27 10:25:17;;;;;;;8.98;5.30;;;16.70;99.90;;;;;;5070675;28;20111;-57
2023/04/27 10:27:48;;;;;;;9.65;5.05;;;16.50;99.90;;;;;;5072268;28;20514;-58
2023/04/27 10:30:17;;;;;;;10.93;5.18;;;15.70;99.90;;;;;;5072558;28;20020;-56
2023/04/27 10:32:58;;;;;;;12.30;5.38;;;15.10;1.00;;;;;;5071741;28;20111;-58
2023/04/27 10:35:35;;;;;;;10.45;5.13;;;15.40;1.00;;;;;;5071939;28;20048;-59
2023/04/27 10:38:06;;;;;;;8.88;4.85;;;15.80;1.00;;;;;;5072440;28;20371;-58
2023/04/27 10:40:33;;;;;;;14.20;4.38;;;16.00;1.00;;;;;;5071997;28;20077;-59
2023/04/27 10:43:16;;;;;;;13.13;4.90;;;16.50;1.00;;;;;;5072084;28;20033;-59
2023/04/27 10:45:43;;;;;;;12.50;6.00;;;16.10;1.00;;;;;;5072069;28;20048;-58
2023/04/27 10:48:13;;;;;;;13.27;5.05;;;15.80;1.00;;;;;;5072086;28;20020;-56
2023/04/27 10:50:39;;;;;;;10.88;5.60;;;16.20;1.00;;;;;;5071619;28;20020;-56
2023/04/27 10:53:06;;;;;;;8.55;5.18;;;16.50;1.00;;;;;;5071791;28;20361;-58
2023/04/27 10:55:33;;;;;;;9.98;5.68;;;16.50;1.00;;;;;;5070542;28;20028;-59
2023/04/27 10:58:00;;;;;;;8.88;5.28;;;15.90;1.00;;;;;;5071903;28;20021;-59
2023/04/27 11:00:26;;;;;;;9.27;5.35;;;15.90;1.00;;;;;;5071441;28;20491;-59
2023/04/27 11:02:53;;;;;;;15.18;7.00;;;16.00;1.00;;;;;;5071839;28;20102;-59
2023/04/27 11:05:21;;;;;;;16.38;6.30;;;16.30;1.00;;;;;;5071403;28;20032;-59
2023/04/27 11:07:47;;;;;;;13.05;5.63;;;16.50;1.00;;;;;;5071505;28;20031;-56
2023/04/27 11:10:19;;;;;;;12.30;5.32;;;16.90;1.00;;;;;;5071128;28;20025;-59
2023/04/27 11:12:45;;;;;;;8.77;5.93;;;16.60;1.00;;;;;;5071942;28;20024;-58
2023/04/27 11:15:12;;;;;;;16.42;7.30;;;16.60;1.00;;;;;;5071718;28;20021;-59
2023/04/27 11:17:39;;;;;;;12.57;6.30;;;16.80;1.00;;;;;;5071535;28;20020;-59
2023/04/27 11:20:07;;;;;;;8.68;6.85;;;16.90;1.00;;;;;;5071396;28;20025;-59
2023/04/27 11:22:34;;;;;;;13.60;5.85;;;17.20;1.00;;;;;;5071466;28;20082;-59
2023/04/27 11:25:00;;;;;;;8.38;5.13;;;17.30;1.00;;;;;;5071552;28;20139;-59
2023/04/27 11:27:38;;;;;;;9.32;5.43;;;18.00;1.00;;;;;;5071158;28;20078;-58
2023/04/27 11:30:06;;;;;;;8.35;5.05;;;18.40;99.90;;;;;;5071325;28;20112;-59
2023/04/27 11:32:32;;;;;;;12.38;5.65;;;18.60;99.90;;;;;;5071307;28;20016;-57
2023/04/27 11:34:57;;;;;;;11.10;5.18;;;19.20;1.00;;;;;;5070999;28;20094;-58
2023/04/27 11:37:27;;;;;;;14.55;5.47;;;19.40;1.00;;;;;;5071136;28;20027;-59
2023/04/27 11:39:54;;;;;;;13.50;6.05;;;19.30;99.90;;;;;;5071290;28;20044;-59
2023/04/27 11:42:25;;;;;;;8.30;5.18;;;18.80;99.90;;;;;;5071210;28;20460;-59
2023/04/27 11:44:58;;;;;;;13.65;5.38;;;18.80;99.90;;;;;;5069960;28;20035;-59
2023/04/27 11:47:27;;;;;;;11.13;4.78;;;18.90;99.90;;;;;;5070900;28;20020;-59
2023/04/27 11:49:58;;;;;;;8.82;4.50;;;19.70;1.00;;;;;;5071066;28;20040;-58
2023/04/27 11:52:30;;;;;;;10.35;4.38;;;20.10;99.90;;;;;;5070953;28;20474;-59
2023/04/27 11:54:57;;;;;;;7.57;4.55;;;19.40;99.90;;;;;;5070383;28;20024;-58
2023/04/27 11:57:25;;;;;;;8.68;4.50;;;19.20;99.90;;;;;;5070071;28;20024;-59
2023/04/27 11:59:55;;;;;;;9.63;4.47;;;18.60;99.90;;;;;;5070338;28;20119;-60
2023/04/27 12:02:24;;;;;;;12.02;4.68;;;18.40;99.90;;;;;;5070465;28;20032;-59
2023/04/27 12:04:50;;;;;;;8.48;5.07;;;18.20;99.90;;;;;;5070127;28;20115;-59
2023/04/27 12:07:16;;;;;;;7.75;4.75;;;18.20;99.90;;;;;;5070260;28;20028;-59
2023/04/27 12:09:42;;;;;;;12.30;4.78;;;18.30;99.90;;;;;;5069602;28;20036;-59
2023/04/27 12:12:08;;;;;;;13.15;4.82;;;18.00;99.90;;;;;;5070847;28;20025;-59
2023/04/27 12:14:34;;;;;;;5.25;3.63;;;18.80;99.90;;;;;;5071639;28;20055;-59
2023/04/27 12:17:00;;;;;;;6.10;3.65;;;19.20;99.90;;;;;;5075932;28;20021;-58
2023/04/27 12:19:26;;;;;;;8.88;4.07;;;19.60;99.90;;;;;;5079865;28;20025;-59
2023/04/27 12:21:52;;;;;;;7.30;4.60;;;19.70;99.90;;;;;;5070006;28;20568;-59
2023/04/27 12:24:18;;;;;;;9.80;4.53;;;19.70;99.90;;;;;;5070674;28;20563;-60
2023/04/27 12:26:45;;;;;;;6.68;3.72;;;19.00;99.90;;;;;;5070861;28;20029;-59
2023/04/27 12:29:11;;;;;;;10.10;3.47;;;19.90;99.90;;;;;;5071061;28;20495;-59
2023/04/27 12:31:36;;;;;;;59.42;15.05;;;20.70;99.90;;;;;;5070679;28;20022;-58
2023/04/27 12:34:02;;;;;;;79.10;20.27;;;20.70;99.90;;;;;;5071172;28;20631;-58
2023/04/27 12:36:28;;;;;;;10.70;3.92;;;19.80;99.90;;;;;;5070376;28;20027;-59
2023/04/27 12:38:58;;;;;;;16.70;4.53;;;18.90;99.90;;;;;;5070620;28;20459;-58
2023/04/27 12:41:24;;;;;;;11.48;4.95;;;19.00;99.90;;;;;;5070709;28;20040;-59
2023/04/27 12:43:53;;;;;;;7.75;4.45;;;19.00;99.90;;;;;;5070690;28;20020;-59
2023/04/27 12:46:19;;;;;;;15.32;5.55;;;19.30;99.90;;;;;;5070514;28;20025;-59
2023/04/27 12:48:45;;;;;;;9.68;4.57;;;19.70;99.90;;;;;;5070495;28;20031;-59
2023/04/27 12:51:12;;;;;;;9.07;4.13;;;20.30;99.90;;;;;;5070582;28;20363;-59